Time;durP1;ratioP1;P1;durP2;ratioP2;P2;SDS_P1;SDS_P2;PMS_P1;PMS_P2;Temp;Humidity;BMP_temperature;BMP_pressure;BME280_temperature;BME280_humidity;BME280_pressure;Samples;Min_cycle;Max_cycle;Signal;HPM_P1;HPM_P2
2022/04/29 00:00:06;;;;;;;18.90;14.10;;;10.20;99.90;;;;;;2616695;54;20956;-79
2022/04/29 00:06:14;;;;;;;15.80;13.63;;;10.00;99.90;;;;;;2616353;54;20427;-78
2022/04/29 00:12:21;;;;;;;15.83;13.93;;;10.00;99.90;;;;;;2617011;54;20527;-79
2022/04/29 00:18:27;;;;;;;23.53;14.50;;;10.00;99.90;;;;;;2616062;54;20149;-79
2022/04/29 00:24:34;;;;;;;17.90;15.17;;;9.90;99.90;;;;;;2616682;54;20700;-78
2022/04/29 00:30:41;;;;;;;23.60;14.90;;;9.80;99.90;;;;;;2616577;54;20232;-79
2022/04/29 00:36:48;;;;;;;18.40;14.70;;;9.80;99.90;;;;;;2616780;54;20418;-79
2022/04/29 00:42:55;;;;;;;20.87;15.90;;;9.70;99.90;;;;;;2614581;54;20166;-78
2022/04/29 00:53:30;;;;;;;22.63;15.13;;;9.60;99.90;;;;;;2615074;54;20434;-79
2022/04/29 01:03:05;;;;;;;22.17;14.80;;;9.50;99.90;;;;;;2614443;51;20426;-78
2022/04/29 01:08:53;;;;;;;19.13;16.90;;;9.40;99.90;;;;;;2614381;54;20435;-79
2022/04/29 01:14:43;;;;;;;23.93;16.40;;;9.30;99.90;;;;;;2615092;54;20442;-79
2022/04/29 01:20:32;;;;;;;23.63;17.57;;;9.10;99.90;;;;;;2615277;54;20462;-80
2022/04/29 01:30:02;;;;;;;20.77;16.40;;;9.20;99.90;;;;;;2614698;54;20700;-77
2022/04/29 01:36:10;;;;;;;18.90;14.60;;;8.90;99.90;;;;;;2615056;54;20972;-79
2022/04/29 01:42:19;;;;;;;22.37;15.23;;;8.70;99.90;;;;;;2615999;54;20404;-79
2022/04/29 01:48:25;;;;;;;20.10;14.20;;;8.70;99.90;;;;;;2616111;54;20455;-78
2022/04/29 01:58:32;;;;;;;22.50;12.97;;;8.60;99.90;;;;;;2616592;54;20381;-79
2022/04/29 02:04:39;;;;;;;20.47;12.73;;;8.60;99.90;;;;;;2617682;54;20397;-77
2022/04/29 02:10:46;;;;;;;24.20;17.17;;;8.50;99.90;;;;;;2616594;54;20410;-79
2022/04/29 02:16:58;;;;;;;17.10;13.50;;;8.60;99.90;;;;;;2617121;54;20401;-82
2022/04/29 02:23:06;;;;;;;15.80;13.03;;;8.50;99.90;;;;;;2617153;54;20422;-81
2022/04/29 02:29:12;;;;;;;18.43;12.10;;;8.50;99.90;;;;;;2617419;39;20545;-82
2022/04/29 02:35:19;;;;;;;20.10;13.47;;;8.30;99.90;;;;;;2618220;54;20413;-82
2022/04/29 02:41:26;;;;;;;17.00;11.07;;;8.30;99.90;;;;;;2616909;54;20149;-78
2022/04/29 02:47:33;;;;;;;16.63;11.10;;;8.30;99.90;;;;;;2616687;39;20777;-78
2022/04/29 03:11:47;;;;;;;21.23;9.53;;;8.00;99.90;;;;;;2615185;54;20409;-80
2022/04/29 03:32:14;;;;;;;13.77;8.70;;;7.90;99.90;;;;;;2614680;54;20410;-80
2022/04/29 03:38:43;;;;;;;13.77;9.10;;;7.80;99.90;;;;;;2615927;54;20405;-77
2022/04/29 03:48:20;;;;;;;14.53;8.70;;;7.70;99.90;;;;;;2614932;54;20450;-79
2022/04/29 03:58:15;;;;;;;18.30;9.40;;;7.70;99.90;;;;;;2615349;54;20506;-79
2022/04/29 04:04:27;;;;;;;15.73;9.33;;;7.80;99.90;;;;;;2615950;54;20557;-79
2022/04/29 04:13:58;;;;;;;12.70;8.83;;;7.60;99.90;;;;;;2615407;54;20558;-79
2022/04/29 04:20:08;;;;;;;13.90;9.70;;;7.40;99.90;;;;;;2613891;54;20426;-79
2022/04/29 04:29:57;;;;;;;19.50;10.10;;;7.40;99.90;;;;;;2615204;54;20424;-78
2022/04/29 04:36:04;;;;;;;10.93;9.43;;;7.40;99.90;;;;;;2615837;54;20404;-79
2022/04/29 04:42:11;;;;;;;26.50;10.20;;;7.50;99.90;;;;;;2613174;54;20379;-79
2022/04/29 04:48:22;;;;;;;23.50;11.13;;;7.50;99.90;;;;;;2614199;54;21069;-78
2022/04/29 04:58:42;;;;;;;16.07;10.40;;;7.60;99.90;;;;;;2614235;39;20861;-80
2022/04/29 05:08:12;;;;;;;13.20;9.73;;;7.80;99.90;;;;;;2614477;54;20389;-79
2022/04/29 05:14:01;;;;;;;15.33;11.27;;;7.80;99.90;;;;;;2615136;54;20443;-78
2022/04/29 05:20:12;;;;;;;15.13;10.03;;;7.90;99.90;;;;;;2614181;54;20442;-79
2022/04/29 05:26:20;;;;;;;18.57;10.73;;;7.80;99.90;;;;;;2613442;54;20809;-75
2022/04/29 05:32:47;;;;;;;18.33;11.17;;;7.80;99.90;;;;;;2613900;54;20412;-76
2022/04/29 05:45:19;;;;;;;21.87;11.47;;;7.90;99.90;;;;;;2613770;54;20419;-76
2022/04/29 05:51:06;;;;;;;23.80;12.53;;;8.00;99.90;;;;;;2613096;47;20961;-77
2022/04/29 06:00:52;;;;;;;20.33;12.07;;;8.50;99.90;;;;;;2608452;54;20426;-77
2022/04/29 06:03:20;;;;;;;21.37;13.60;;;8.70;99.90;;;;;;2610982;54;20468;-77
2022/04/29 06:05:46;;;;;;;19.17;11.90;;;8.90;99.90;;;;;;2611526;54;20260;-77
2022/04/29 06:11:34;;;;;;;16.37;11.97;;;9.10;99.90;;;;;;2614150;47;20162;-77
2022/04/29 06:17:43;;;;;;;15.00;11.87;;;9.60;99.90;;;;;;2613840;54;20409;-76
2022/04/29 06:24:09;;;;;;;16.93;10.87;;;10.10;99.90;;;;;;2614369;54;20408;-78
2022/04/29 06:33:38;;;;;;;15.10;11.20;;;10.90;99.90;;;;;;2613792;54;20374;-79
2022/04/29 06:43:32;;;;;;;15.27;10.83;;;11.80;94.80;;;;;;2632241;36;20978;-77
2022/04/29 06:53:40;;;;;;;19.87;12.30;;;11.90;92.50;;;;;;2615229;54;20407;-79
2022/04/29 06:59:49;;;;;;;23.47;12.70;;;11.80;94.10;;;;;;2612770;54;20454;-79
2022/04/29 07:05:57;;;;;;;14.80;11.67;;;11.50;95.70;;;;;;2613428;54;20428;-77
2022/04/29 07:12:04;;;;;;;16.53;12.00;;;11.60;96.50;;;;;;2615021;54;20464;-78
2022/04/29 07:18:31;;;;;;;14.90;10.73;;;11.60;97.20;;;;;;2615694;54;20391;-76
2022/04/29 07:28:00;;;;;;;18.60;12.90;;;13.00;84.50;;;;;;2613739;47;20612;-77
2022/04/29 07:34:06;;;;;;;18.47;12.07;;;13.80;71.40;;;;;;2615461;54;20391;-77
2022/04/29 07:43:53;;;;;;;17.77;12.13;;;15.10;51.60;;;;;;2613708;54;20420;-77
2022/04/29 07:50:00;;;;;;;14.43;11.80;;;15.60;47.40;;;;;;2613803;46;20462;-76
2022/04/29 07:56:10;;;;;;;14.67;13.13;;;16.30;39.50;;;;;;2616734;54;20492;-78
2022/04/29 07:58:38;;;;;;;15.77;13.43;;;16.60;37.40;;;;;;2615320;47;20431;-76
2022/04/29 08:01:06;;;;;;;16.70;11.97;;;17.00;32.80;;;;;;2613203;54;20603;-77
2022/04/29 08:07:13;;;;;;;23.60;13.60;;;16.40;34.60;;;;;;2616758;54;20427;-77
2022/04/29 08:13:20;;;;;;;15.90;12.00;;;15.90;38.40;;;;;;2616765;54;20236;-78
2022/04/29 08:19:33;;;;;;;21.63;14.17;;;15.20;42.00;;;;;;2616563;54;20400;-78
2022/04/29 08:26:02;;;;;;;17.93;13.80;;;14.70;49.90;;;;;;2615619;54;20436;-77
2022/04/29 08:32:10;;;;;;;19.63;13.30;;;14.30;51.40;;;;;;2614197;54;21029;-77
2022/04/29 08:38:20;;;;;;;18.30;14.47;;;14.00;57.10;;;;;;2614785;54;20976;-76
2022/04/29 08:44:33;;;;;;;16.40;13.30;;;13.80;59.60;;;;;;2614759;54;20440;-75
2022/04/29 08:51:06;;;;;;;21.23;13.73;;;13.60;58.60;;;;;;2614589;39;20886;-77
2022/04/29 09:03:38;;;;;;;19.83;13.03;;;13.70;55.50;;;;;;2615625;39;20869;-76
2022/04/29 09:20:41;;;;;;;19.03;12.93;;;15.00;42.60;;;;;;2614508;47;20458;-78
2022/04/29 09:26:38;;;;;;;15.83;13.00;;;15.90;33.60;;;;;;2614384;54;20423;-78
2022/04/29 09:36:50;;;;;;;22.67;13.43;;;16.30;29.40;;;;;;2613397;54;20505;-77
2022/04/29 09:57:27;;;;;;;15.60;12.10;;;16.00;26.60;;;;;;2614152;54;20503;-76
2022/04/29 10:07:16;;;;;;;21.90;11.23;;;15.80;28.90;;;;;;2614502;54;20415;-77
2022/04/29 10:13:26;;;;;;;17.17;9.90;;;16.00;29.60;;;;;;2615017;39;20981;-78
2022/04/29 10:26:46;;;;;;;12.80;10.23;;;16.30;23.60;;;;;;2615826;54;20439;-77
2022/04/29 10:36:24;;;;;;;13.70;10.10;;;17.40;19.20;;;;;;2614766;46;20932;-77
2022/04/29 10:42:11;;;;;;;12.63;9.50;;;17.50;15.60;;;;;;2615947;54;20967;-78
2022/04/29 10:51:50;;;;;;;22.53;10.30;;;17.30;14.20;;;;;;2615991;39;20967;-78
2022/04/29 10:58:21;;;;;;;11.50;9.67;;;17.20;15.70;;;;;;2615205;54;20403;-78
2022/04/29 11:04:32;;;;;;;16.10;9.43;;;16.90;16.20;;;;;;2615490;54;20657;-77
2022/04/29 11:06:58;;;;;;;12.93;9.87;;;16.70;17.50;;;;;;2615398;54;21272;-79
2022/04/29 11:12:57;;;;;;;10.67;9.13;;;17.00;15.50;;;;;;2615279;46;20461;-78
2022/04/29 11:29:23;;;;;;;11.73;8.60;;;17.80;11.90;;;;;;2615034;54;20500;-79
2022/04/29 11:36:09;;;;;;;13.03;8.47;;;17.80;7.60;;;;;;2615147;54;20933;-78
2022/04/29 11:46:08;;;;;;;11.70;8.23;;;18.20;3.90;;;;;;2616607;31;21091;-77
2022/04/29 12:10:36;;;;;;;9.27;8.00;;;18.90;1.00;;;;;;2620285;54;20448;-77
2022/04/29 12:16:24;;;;;;;9.60;8.70;;;18.50;1.00;;;;;;2619687;54;20427;-77
2022/04/29 12:47:38;;;;;;;9.50;8.70;;;18.70;1.00;;;;;;2614565;54;21052;-77
2022/04/29 12:53:44;;;;;;;12.07;8.77;;;18.50;1.10;;;;;;2615421;54;20553;-79
2022/04/29 12:59:50;;;;;;;11.83;8.47;;;17.60;3.80;;;;;;2612980;54;20207;-78
2022/04/29 13:24:03;;;;;;;16.47;10.30;;;17.00;6.00;;;;;;2614085;54;20415;-78
2022/04/29 13:30:32;;;;;;;13.87;10.13;;;17.00;7.60;;;;;;2613012;54;20471;-77
2022/04/29 13:40:00;;;;;;;15.00;9.80;;;17.00;7.10;;;;;;2614997;54;20428;-78
2022/04/29 14:00:14;;;;;;;14.60;12.30;;;16.80;12.40;;;;;;2615270;54;20413;-78
2022/04/29 14:09:42;;;;;;;15.20;11.97;;;16.60;11.50;;;;;;2613290;54;20437;-78
2022/04/29 14:15:48;;;;;;;14.70;11.47;;;16.10;14.00;;;;;;2615101;54;20173;-77
2022/04/29 14:21:55;;;;;;;16.60;12.90;;;16.20;14.20;;;;;;2614260;54;20416;-77
2022/04/29 14:28:01;;;;;;;14.73;10.90;;;16.40;13.70;;;;;;2615240;54;20169;-77
2022/04/29 14:34:08;;;;;;;11.37;10.33;;;16.40;12.60;;;;;;2617242;39;20919;-77
2022/04/29 14:40:15;;;;;;;12.77;11.23;;;16.50;12.20;;;;;;2616732;54;20386;-77
2022/04/29 14:46:25;;;;;;;16.50;13.50;;;16.40;12.70;;;;;;2616003;54;20403;-77
2022/04/29 14:52:31;;;;;;;12.70;11.40;;;16.40;10.40;;;;;;2616274;54;20392;-79
2022/04/29 14:58:38;;;;;;;15.53;13.03;;;16.20;11.80;;;;;;2616811;54;20222;-77
2022/04/29 15:04:45;;;;;;;14.50;11.93;;;16.10;12.80;;;;;;2616632;54;20238;-77
2022/04/29 15:20:58;;;;;;;14.57;12.33;;;15.90;14.40;;;;;;2615565;54;20415;-77
2022/04/29 15:27:06;;;;;;;14.03;12.40;;;16.10;12.80;;;;;;2615149;54;20429;-77
2022/04/29 15:33:13;;;;;;;16.10;12.90;;;16.30;10.60;;;;;;2615718;54;20403;-78
2022/04/29 15:39:20;;;;;;;16.37;14.20;;;16.60;9.80;;;;;;2614555;54;20446;-77
2022/04/29 15:45:27;;;;;;;16.27;14.47;;;16.60;6.80;;;;;;2615632;46;20412;-77
2022/04/29 15:51:34;;;;;;;16.30;13.77;;;16.50;7.30;;;;;;2614309;54;20454;-78
2022/04/29 15:57:40;;;;;;;17.27;13.50;;;16.60;7.30;;;;;;2616604;31;21037;-79
2022/04/29 16:03:51;;;;;;;18.93;14.80;;;16.60;7.30;;;;;;2615597;54;20414;-78
2022/04/29 16:35:14;;;;;;;15.30;10.70;;;15.60;7.20;;;;;;2611984;54;20494;-79
2022/04/29 16:41:21;;;;;;;12.00;10.80;;;15.40;7.70;;;;;;2614057;54;20502;-78
2022/04/29 16:47:27;;;;;;;17.53;11.93;;;15.20;7.10;;;;;;2612505;54;20216;-77
2022/04/29 16:53:34;;;;;;;21.43;11.50;;;15.10;7.70;;;;;;2612626;54;20340;-78
2022/04/29 16:59:40;;;;;;;34.40;29.60;;;15.00;7.60;;;;;;2613313;54;20395;-75
2022/04/29 17:05:49;;;;;;;13.17;11.33;;;15.00;8.60;;;;;;2613896;54;20967;-78
2022/04/29 17:11:57;;;;;;;16.07;10.53;;;14.80;9.20;;;;;;2614987;54;20854;-78
2022/04/29 17:25:17;;;;;;;10.90;9.77;;;14.80;8.50;;;;;;2612276;54;20491;-76
2022/04/29 17:31:24;;;;;;;10.30;9.20;;;14.60;8.70;;;;;;2614211;54;20261;-78
2022/04/29 17:37:30;;;;;;;16.63;10.37;;;14.30;10.80;;;;;;2612850;54;20190;-78
2022/04/29 17:43:38;;;;;;;13.17;9.80;;;14.20;11.40;;;;;;2614904;39;20827;-79
2022/04/29 17:56:12;;;;;;;20.43;13.13;;;14.10;10.50;;;;;;2615553;54;20413;-79
2022/04/29 18:02:19;;;;;;;13.17;9.53;;;14.00;10.50;;;;;;2615426;54;20549;-79
2022/04/29 18:08:27;;;;;;;9.97;8.90;;;14.00;10.20;;;;;;2615889;54;20410;-79
2022/04/29 18:14:34;;;;;;;9.23;8.30;;;13.90;10.50;;;;;;2614892;54;20307;-78
2022/04/29 18:24:22;;;;;;;10.40;9.30;;;13.70;10.30;;;;;;2615559;39;20823;-80
2022/04/29 18:30:10;;;;;;;14.40;9.10;;;13.70;11.20;;;;;;2613634;54;20419;-79
2022/04/29 18:35:58;;;;;;;12.10;8.93;;;13.70;11.20;;;;;;2614051;54;20432;-79
2022/04/29 18:41:46;;;;;;;17.47;10.17;;;13.60;12.60;;;;;;2615041;47;20415;-78
2022/04/29 18:47:33;;;;;;;10.17;9.13;;;13.50;11.10;;;;;;2612863;54;20259;-78
2022/04/29 18:53:23;;;;;;;10.23;9.30;;;13.40;11.10;;;;;;2615558;54;20415;-78
2022/04/29 18:59:15;;;;;;;12.67;8.57;;;13.30;11.50;;;;;;2616443;54;20400;-80
2022/04/29 19:05:04;;;;;;;8.30;7.50;;;13.30;11.40;;;;;;2614836;54;20394;-79
2022/04/29 19:10:53;;;;;;;14.53;8.80;;;13.10;16.20;;;;;;2615423;54;20400;-81
2022/04/29 19:17:05;;;;;;;9.37;8.37;;;12.90;20.20;;;;;;2613731;54;20418;-77
2022/04/29 19:22:53;;;;;;;12.83;8.87;;;12.70;24.50;;;;;;2614264;47;20984;-79
2022/04/29 19:28:42;;;;;;;12.33;9.50;;;12.80;25.20;;;;;;2614630;46;20423;-79
2022/04/29 19:34:30;;;;;;;13.70;8.50;;;12.50;28.50;;;;;;2615294;54;20484;-77
2022/04/29 19:40:18;;;;;;;11.87;9.40;;;12.40;31.80;;;;;;2613967;54;20242;-81
2022/04/29 20:03:41;;;;;;;8.37;6.80;;;12.00;36.40;;;;;;2613157;54;20395;-80
2022/04/29 20:11:10;;;;;;;12.03;10.70;;;11.90;38.40;;;;;;2612388;54;20964;-79
2022/04/29 20:20:57;;;;;;;11.73;9.37;;;11.70;40.80;;;;;;2614523;54;20418;-79
2022/04/29 20:27:04;;;;;;;11.77;8.50;;;11.70;39.80;;;;;;2614124;54;20158;-80
2022/04/29 20:33:13;;;;;;;11.13;9.00;;;11.70;37.10;;;;;;2614078;54;20403;-79
2022/04/29 20:45:46;;;;;;;9.60;7.70;;;11.50;37.50;;;;;;2614829;54;20437;-82
2022/04/29 20:51:53;;;;;;;7.90;7.10;;;11.30;36.40;;;;;;2615128;54;20709;-80
2022/04/29 20:58:01;;;;;;;7.90;6.60;;;11.30;37.60;;;;;;2616263;54;20412;-78
2022/04/29 21:04:08;;;;;;;8.23;7.43;;;11.10;37.10;;;;;;2615198;54;20145;-77
2022/04/29 21:10:15;;;;;;;13.43;7.97;;;11.10;37.30;;;;;;2615773;39;20758;-81
2022/04/29 21:20:46;;;;;;;10.67;7.77;;;11.10;39.30;;;;;;2614639;54;20539;-80
2022/04/29 21:26:52;;;;;;;11.73;8.07;;;11.10;38.60;;;;;;2614490;54;20927;-79
2022/04/29 21:32:58;;;;;;;8.40;7.60;;;11.10;39.90;;;;;;2615336;54;20293;-79
2022/04/29 21:39:04;;;;;;;11.37;8.20;;;10.80;43.50;;;;;;2614659;54;20170;-79
2022/04/29 21:45:11;;;;;;;9.97;7.90;;;10.80;44.70;;;;;;2613333;54;20164;-80
2022/04/29 21:51:19;;;;;;;11.13;7.23;;;10.70;48.10;;;;;;2614200;54;20405;-81
2022/04/29 21:57:25;;;;;;;9.27;7.30;;;10.50;48.10;;;;;;2613998;54;20418;-80
2022/04/29 22:03:34;;;;;;;8.07;7.00;;;10.50;49.90;;;;;;2615521;54;20193;-79
2022/04/29 22:09:41;;;;;;;8.50;7.40;;;10.40;51.90;;;;;;2615578;54;20568;-78
2022/04/29 22:15:48;;;;;;;8.50;6.90;;;10.30;53.40;;;;;;2616875;39;20527;-80
2022/04/29 22:25:17;;;;;;;10.40;7.57;;;10.20;58.80;;;;;;2615618;54;21036;-80
2022/04/29 22:31:05;;;;;;;10.30;7.90;;;10.00;63.30;;;;;;2616181;54;20460;-79
2022/04/29 22:36:53;;;;;;;11.07;7.87;;;10.00;67.70;;;;;;2615571;47;20248;-79
2022/04/29 22:42:44;;;;;;;10.53;7.27;;;9.90;75.80;;;;;;2616153;46;20414;-79
2022/04/29 22:48:33;;;;;;;15.20;7.27;;;9.80;81.90;;;;;;2615119;47;20437;-80
2022/04/29 22:54:21;;;;;;;10.73;6.93;;;9.60;89.30;;;;;;2616356;46;20439;-80
2022/04/29 23:00:13;;;;;;;10.60;6.60;;;9.40;92.30;;;;;;2616565;54;20580;-80
2022/04/29 23:16:51;;;;;;;9.30;7.20;;;9.20;97.00;;;;;;2614104;39;21028;-80
2022/04/29 23:23:05;;;;;;;8.37;6.60;;;9.30;95.80;;;;;;2615350;54;20733;-78
2022/04/29 23:26:08;;;;;;;11.20;7.80;;;9.30;95.40;;;;;;2614609;54;20446;-77
2022/04/29 23:31:55;;;;;;;13.47;7.37;;;9.30;94.20;;;;;;2614622;54;20163;-79
2022/04/29 23:37:45;;;;;;;8.03;6.50;;;9.20;95.50;;;;;;2614387;47;21076;-82
2022/04/29 23:43:33;;;;;;;7.70;6.40;;;9.20;95.80;;;;;;2614599;54;20426;-80
